LavenderCAM.net
Leatherhead Weather
 
Leatherhead Weather
 
 





Aviation weather for

London Heathrow (EGLL) and London Gatwick (EGKK)



London Heathrow (EGLL) METAR / Surface Actual
London / Heathrow Airport, United Kingdom (EGLL) 51-29N 000-27W 0M
Mar 03, 2024 - 10:20 PM EST / 2024.03.04 0320 UTC
Wind: from the ENE (070 degrees) at 1 MPH (1 KT):0
Visibility: greater than 7 mile(s):0
Sky conditions: mostly clear
Temperature: 33 F (1 C)
Dew Point: 32 F (0 C)
Relative Humidity: 93%
Pressure (altimeter): 29.80 in. Hg (1009 hPa)
ob: EGLL 040320Z AUTO 07001KT 9999 FEW022 01/00 Q1009 NOSIG
cycle: 3
London Heathrow (EGLL) TAF / Forecast
2024/03/03 18:09
TAF EGLL 031654Z 0318/0424 28006KT 9999 FEW040 
      TEMPO 0402/0410 8000 PROB30 0404/0409 3000 BR MIFG 
      BECMG 0409/0412 17010KT 
      TEMPO 0419/0424 7000 -RA BKN012 PROB30 
      TEMPO 0420/0424 4000 RADZ BKN008


London Gatwick (EGKK) METAR / Surface Actual
London / Gatwick Airport, United Kingdom (EGKK) 51-09N 000-11W 0M
Mar 03, 2024 - 10:20 PM EST / 2024.03.04 0320 UTC
Wind: from the ENE (070 degrees) at 3 MPH (3 KT):0
Visibility: greater than 7 mile(s):0
Sky conditions: partly cloudy
Weather: fog in the vicinity
Temperature: 32 F (0 C)
Dew Point: 32 F (0 C)
Relative Humidity: 100%
Pressure (altimeter): 29.80 in. Hg (1009 hPa)
ob: EGKK 040320Z 07003KT 9999 VCFG SCT032 00/M00 Q1009
cycle: 3
London Gatwick (EGKK) TAF / Forecast
2024/03/03 18:09
TAF EGKK 031655Z 0318/0424 31003KT 9999 FEW020 
      TEMPO 0400/0409 6000 PROB40 0402/0404 3000 BR MIFG PROB30 0404/0409 0300 FG FZFG VV/// 
      BECMG 0408/0411 18010KT 
      TEMPO 0418/0424 7000 RA BKN010 PROB30 
      TEMPO 0422/0424 4000 RADZ BKN007